createdAt,value
2018-05-02T00:00:38.809Z,24
2018-05-02T00:01:29.155Z,24.1
2018-05-02T00:02:18.649Z,24
2018-05-02T00:03:09.027Z,24
2018-05-02T00:03:59.319Z,24
2018-05-02T00:04:49.396Z,24
2018-05-02T00:05:39.479Z,24
2018-05-02T00:06:29.534Z,24
2018-05-02T00:07:19.334Z,24
2018-05-02T00:08:09.184Z,24
2018-05-02T00:08:59.745Z,24
2018-05-02T00:09:49.491Z,24
2018-05-02T00:10:39.926Z,23.9
2018-05-02T00:11:29.657Z,24
2018-05-02T00:12:19.426Z,23.9
2018-05-02T00:13:10.026Z,23.9
2018-05-02T00:14:00.109Z,23.9
2018-05-02T00:14:49.721Z,23.9
2018-05-02T00:15:40.004Z,23.9
2018-05-02T00:16:30.018Z,23.9
2018-05-02T00:17:19.827Z,23.9
2018-05-02T00:18:10.590Z,23.9
2018-05-02T00:19:00.257Z,23.9
2018-05-02T00:19:50.288Z,23.9
2018-05-02T00:20:40.354Z,23.9
2018-05-02T00:21:30.141Z,23.9
2018-05-02T00:22:20.786Z,23.9
2018-05-02T00:23:10.513Z,23.9
2018-05-02T00:24:00.698Z,23.9
2018-05-02T00:24:50.402Z,23.9
2018-05-02T00:25:40.708Z,23.9
2018-05-02T00:26:31.061Z,23.9
2018-05-02T00:27:20.560Z,23.9
2018-05-02T00:28:10.710Z,23.8
2018-05-02T00:29:00.719Z,23.8
2018-05-02T00:29:50.475Z,23.9
2018-05-02T00:30:41.406Z,23.8
2018-05-02T00:31:30.913Z,23.8
2018-05-02T00:32:21.544Z,23.8
2018-05-02T00:33:10.770Z,23.8
2018-05-02T00:34:02.109Z,23.8
2018-05-02T00:34:50.884Z,23.8
2018-05-02T00:35:41.785Z,23.8
2018-05-02T00:36:31.580Z,23.8
2018-05-02T00:37:21.394Z,23.8
2018-05-02T00:38:11.156Z,23.8
2018-05-02T00:39:01.775Z,23.7
2018-05-02T00:39:52.119Z,23.8
2018-05-02T00:40:41.919Z,23.7
2018-05-02T00:41:32.304Z,23.7
2018-05-02T00:42:22.320Z,23.8
2018-05-02T00:43:12.374Z,23.7
2018-05-02T00:44:02.186Z,23.7
2018-05-02T00:44:52.490Z,23.7
2018-05-02T00:45:42.546Z,23.7
2018-05-02T00:46:32.599Z,23.7
2018-05-02T00:47:22.427Z,23.7
2018-05-02T00:48:12.503Z,23.7
2018-05-02T00:49:02.823Z,23.7
2018-05-02T00:49:52.876Z,23.6
2018-05-02T00:50:42.391Z,23.6
2018-05-02T00:51:32.152Z,23.6
2018-05-02T00:52:23.077Z,23.6
2018-05-02T00:53:12.879Z,23.6
2018-05-02T00:54:02.374Z,23.6
2018-05-02T00:54:52.980Z,23.6
2018-05-02T00:55:43.084Z,23.6
2018-05-02T00:56:33.099Z,23.6
2018-05-02T00:57:22.896Z,23.6
2018-05-02T00:58:13.247Z,23.6
2018-05-02T00:59:03.310Z,23.6
2018-05-02T00:59:53.097Z,23.6
2018-05-02T01:00:43.459Z,23.6
2018-05-02T01:01:33.538Z,23.6
2018-05-02T01:02:23.880Z,23.6
2018-05-02T01:03:13.636Z,23.6
2018-05-02T01:04:03.725Z,23.6
2018-05-02T01:04:53.472Z,23.6
2018-05-02T01:05:43.845Z,23.5
2018-05-02T01:06:33.633Z,23.6
2018-05-02T01:07:24.233Z,23.5
2018-05-02T01:08:13.733Z,23.5
2018-05-02T01:09:03.250Z,23.5
2018-05-02T01:09:54.139Z,23.5
2018-05-02T01:10:43.951Z,23.5
2018-05-02T01:11:34.592Z,23.5
2018-05-02T01:12:24.602Z,23.5
2018-05-02T01:13:14.684Z,23.5
2018-05-02T01:14:04.506Z,23.5
2018-05-02T01:14:54.541Z,23.5
2018-05-02T01:15:44.918Z,23.5
2018-05-02T01:16:34.955Z,23.4
2018-05-02T01:17:24.474Z,23.4
2018-05-02T01:18:14.523Z,23.4
2018-05-02T01:19:05.135Z,23.4
2018-05-02T01:19:55.207Z,23.4
2018-05-02T01:20:44.992Z,23.4
2018-05-02T01:21:35.046Z,23.4
2018-05-02T01:22:25.122Z,23.4
2018-05-02T01:23:15.465Z,23.4
2018-05-02T01:24:05.595Z,23.4
2018-05-02T01:24:55.338Z,23.4
2018-05-02T01:25:45.669Z,23.4
2018-05-02T01:26:35.432Z,23.4
2018-05-02T01:27:25.491Z,23.4
2018-05-02T01:28:15.873Z,23.4
2018-05-02T01:29:05.656Z,23.4
2018-05-02T01:29:55.720Z,23.4
2018-05-02T01:30:45.753Z,23.4
2018-05-02T01:31:36.117Z,23.4
2018-05-02T01:32:26.181Z,23.4
2018-05-02T01:33:15.970Z,23.4
2018-05-02T01:34:05.847Z,23.4
2018-05-02T01:34:56.367Z,23.4
2018-05-02T01:35:46.458Z,23.3
2018-05-02T01:36:36.224Z,23.4
2018-05-02T01:37:26.296Z,23.4
2018-05-02T01:38:16.350Z,23.3
2018-05-02T01:39:06.425Z,23.3
2018-05-02T01:39:56.190Z,23.3
2018-05-02T01:40:46.811Z,23.3
2018-05-02T01:41:36.870Z,23.3
2018-05-02T01:42:26.656Z,23.3
2018-05-02T01:43:17.015Z,23.3
2018-05-02T01:44:06.515Z,23.3
2018-05-02T01:44:56.883Z,23.3
2018-05-02T01:45:46.952Z,23.3
2018-05-02T01:46:37.362Z,23.3
2018-05-02T01:47:26.509Z,23.3
2018-05-02T01:48:16.571Z,23.3
2018-05-02T01:49:07.485Z,23.3
2018-05-02T01:49:57.560Z,23.3
2018-05-02T01:50:47.040Z,23.3
2018-05-02T01:51:37.689Z,23.3
2018-05-02T01:52:27.458Z,23.3
2018-05-02T01:53:17.520Z,23.3
2018-05-02T01:54:07.575Z,23.3
2018-05-02T01:54:57.386Z,23.3
2018-05-02T01:55:47.710Z,23.3
2018-05-02T01:56:37.788Z,23.3
2018-05-02T01:57:27.843Z,23.3
2018-05-02T01:58:18.210Z,23.3
2018-05-02T01:59:07.963Z,23.3
2018-05-02T01:59:57.763Z,23.3
2018-05-02T02:00:48.374Z,23.3
2018-05-02T02:01:38.447Z,23.2
2018-05-02T02:02:28.496Z,23.3
2018-05-02T02:03:18.678Z,23.3
2018-05-02T02:04:08.345Z,23.2
2018-05-02T02:04:58.718Z,23.3
2018-05-02T02:05:48.506Z,23.2
2018-05-02T02:06:38.840Z,23.2
2018-05-02T02:07:28.330Z,23.3
2018-05-02T02:08:18.696Z,23.2
2018-05-02T02:09:09.035Z,23.3
2018-05-02T02:09:58.817Z,23.2
2018-05-02T02:10:49.244Z,23.2
2018-05-02T02:11:38.699Z,23.2
2018-05-02T02:12:28.747Z,23.2
2018-05-02T02:13:18.816Z,23.2
2018-05-02T02:14:09.151Z,23.1
2018-05-02T02:14:59.209Z,23.2
2018-05-02T02:15:49.551Z,23.2
2018-05-02T02:16:39.366Z,23.1
2018-05-02T02:17:29.716Z,23.1
2018-05-02T02:18:19.591Z,23.1
2018-05-02T02:19:09.243Z,23.1
2018-05-02T02:19:59.893Z,23.1
2018-05-02T02:20:49.672Z,23.1
2018-05-02T02:21:39.716Z,23.1
2018-05-02T02:22:30.074Z,23.1
2018-05-02T02:23:19.591Z,23.1
2018-05-02T02:24:09.991Z,23.1
2018-05-02T02:25:00.343Z,23.1
2018-05-02T02:25:50.055Z,23.1
2018-05-02T02:26:40.394Z,23.1
2018-05-02T02:27:30.477Z,23.1
2018-05-02T02:28:19.944Z,23.1
2018-05-02T02:29:10.603Z,23.1
2018-05-02T02:30:00.621Z,23.1
2018-05-02T02:30:50.532Z,23.1
2018-05-02T02:31:39.957Z,23.1
2018-05-02T02:32:30.860Z,23.1
2018-05-02T02:33:20.359Z,23.1
2018-05-02T02:34:10.671Z,23.1
2018-05-02T02:35:00.758Z,23.1
2018-05-02T02:35:51.106Z,23.1
2018-05-02T02:36:40.890Z,23.1
2018-05-02T02:37:30.963Z,23.1
2018-05-02T02:38:21.053Z,23.1
2018-05-02T02:39:11.120Z,23.1
2018-05-02T02:40:01.448Z,23.1
2018-05-02T02:40:50.928Z,23
2018-05-02T02:41:41.575Z,23
2018-05-02T02:42:31.062Z,23.1
2018-05-02T02:43:21.443Z,23
2018-05-02T02:44:11.797Z,23
2018-05-02T02:45:01.541Z,23
2018-05-02T02:45:51.897Z,23
2018-05-02T02:46:41.953Z,23
2018-05-02T02:47:32.031Z,23
2018-05-02T02:48:22.089Z,23
2018-05-02T02:49:11.603Z,22.9
2018-05-02T02:50:01.666Z,23
2018-05-02T02:50:51.980Z,22.9
2018-05-02T02:51:42.384Z,23
2018-05-02T02:52:32.400Z,22.9
2018-05-02T02:53:22.218Z,23
2018-05-02T02:54:11.988Z,22.9
2018-05-02T02:55:02.607Z,22.9
2018-05-02T02:55:52.115Z,22.9
2018-05-02T02:56:42.420Z,22.9
2018-05-02T02:57:32.527Z,22.9
2018-05-02T02:58:22.833Z,22.9
2018-05-02T02:59:12.919Z,22.9
2018-05-02T03:00:02.425Z,22.9
2018-05-02T03:00:53.139Z,22.9
2018-05-02T03:01:42.265Z,22.9
2018-05-02T03:02:32.627Z,22.9
2018-05-02T03:03:22.944Z,22.9
2018-05-02T03:04:12.759Z,22.9
2018-05-02T03:05:02.869Z,22.9
2018-05-02T03:05:53.171Z,22.9
2018-05-02T03:06:42.941Z,22.9
2018-05-02T03:07:32.696Z,22.9
2018-05-02T03:08:23.065Z,22.9
2018-05-02T03:09:13.410Z,22.9
2018-05-02T03:10:03.486Z,22.9
2018-05-02T03:10:53.542Z,22.9
2018-05-02T03:11:43.900Z,22.9
2018-05-02T03:12:33.687Z,22.9
2018-05-02T03:13:23.726Z,22.9
2018-05-02T03:14:13.846Z,22.9
2018-05-02T03:15:03.592Z,22.9
2018-05-02T03:15:53.620Z,22.9
2018-05-02T03:16:44.352Z,22.9
2018-05-02T03:17:34.068Z,22.9
2018-05-02T03:18:23.844Z,22.9
2018-05-02T03:19:14.473Z,22.9
2018-05-02T03:20:04.558Z,22.9
2018-05-02T03:20:54.023Z,22.9
2018-05-02T03:21:44.657Z,22.9
2018-05-02T03:22:34.447Z,22.9
2018-05-02T03:23:24.817Z,22.9
2018-05-02T03:24:14.873Z,22.9
2018-05-02T03:25:04.073Z,22.9
2018-05-02T03:25:55.091Z,22.9
2018-05-02T03:26:45.101Z,22.8
2018-05-02T03:27:34.823Z,22.8
2018-05-02T03:28:25.155Z,22.8
2018-05-02T03:29:14.963Z,22.8
2018-05-02T03:30:05.179Z,22.8
2018-05-02T03:30:55.503Z,22.8
2018-05-02T03:31:45.187Z,22.8
2018-05-02T03:32:35.209Z,22.8
2018-05-02T03:33:25.297Z,22.8
2018-05-02T03:34:15.347Z,22.8
2018-05-02T03:35:05.407Z,22.8
2018-05-02T03:35:55.748Z,22.8
2018-05-02T03:36:45.261Z,22.8
2018-05-02T03:37:35.909Z,22.8
2018-05-02T13:28:40.558Z,63.3
2018-05-02T13:29:30.608Z,63.2
2018-05-02T13:30:20.966Z,62.9
2018-05-02T13:31:10.732Z,62.1
2018-05-02T13:32:00.507Z,61.1
2018-05-02T13:32:50.597Z,60.3
2018-05-02T13:33:40.947Z,60
2018-05-02T13:34:30.983Z,60.2
2018-05-02T13:35:21.058Z,60.4
2018-05-02T13:36:10.877Z,60.7
2018-05-02T13:37:01.209Z,60.8
2018-05-02T13:37:51.544Z,60.8
2018-05-02T13:38:41.320Z,60.7
2018-05-02T13:39:31.902Z,60.4
2018-05-02T13:40:21.474Z,60.1
2018-05-02T13:41:11.245Z,59.9
2018-05-02T13:42:01.302Z,59.8
2018-05-02T13:42:51.950Z,59.7
2018-05-02T13:43:41.737Z,59.6
2018-05-02T13:44:31.534Z,59.3
2018-05-02T13:45:21.879Z,58.9
2018-05-02T13:46:12.189Z,58.8
2018-05-02T13:47:02.297Z,58.6
2018-05-02T13:47:51.792Z,58.1
2018-05-02T13:48:42.481Z,57.5
2018-05-02T13:49:32.193Z,57.1
2018-05-02T13:50:22.527Z,56.8
2018-05-02T13:51:12.342Z,56.4
2018-05-02T13:52:02.431Z,55.9
2018-05-02T13:52:51.901Z,55.4
2018-05-02T13:53:42.791Z,55
2018-05-02T13:54:31.839Z,54.6
2018-05-02T13:55:22.702Z,54.3
2018-05-02T13:56:12.431Z,54.2
2018-05-02T13:57:02.601Z,54.2
2018-05-02T13:57:52.928Z,54.3
2018-05-02T13:58:42.734Z,54.2
2018-05-02T13:59:32.981Z,53.8
2018-05-02T14:00:23.063Z,53.2
2018-05-02T14:01:12.958Z,52.6
2018-05-02T14:02:03.214Z,52
2018-05-02T14:02:53.259Z,51.6
2018-05-02T14:03:43.604Z,51.3
2018-05-02T14:04:33.726Z,51
2018-05-02T14:05:23.792Z,50.8
2018-05-02T14:06:13.504Z,50.6
2018-05-02T14:07:03.625Z,50.4
2018-05-02T14:07:53.685Z,50.1
2018-05-02T14:08:43.792Z,49.8
2018-05-02T14:09:33.605Z,49.5
2018-05-02T14:10:24.150Z,49.2
2018-05-02T14:11:13.619Z,48.9
2018-05-02T14:12:03.992Z,48.6
2018-05-02T14:12:54.312Z,48.3
2018-05-02T14:13:44.095Z,48.1
2018-05-02T14:14:34.438Z,48
2018-05-02T14:15:24.271Z,47.8
2018-05-02T14:16:14.323Z,47.6
2018-05-02T14:17:04.655Z,47.4
2018-05-02T14:17:54.150Z,47.3
2018-05-02T14:18:44.497Z,47.1
2018-05-02T14:19:34.580Z,46.9
2018-05-02T14:20:24.359Z,46.7
2018-05-02T14:21:14.975Z,46.4
2018-05-02T14:22:05.032Z,46.2
2018-05-02T14:22:54.829Z,46.1
2018-05-02T14:23:44.604Z,45.9
2018-05-02T14:24:35.235Z,45.8
2018-05-02T14:25:25.040Z,45.6
2018-05-02T14:26:15.094Z,45.4
2018-05-02T14:27:04.877Z,45.3
2018-05-02T14:27:55.244Z,45.1
2018-05-02T14:28:45.280Z,45
2018-05-02T14:29:35.677Z,44.9
2018-05-02T14:30:25.700Z,44.7
2018-05-02T14:31:15.250Z,44.6
2018-05-02T14:32:05.635Z,44.5
2018-05-02T14:32:56.549Z,44.4
2018-05-02T14:33:45.952Z,44.2
2018-05-02T14:34:35.814Z,44.1
2018-05-02T14:35:26.127Z,43.9
2018-05-02T14:36:16.147Z,43.8
2018-05-02T14:37:06.240Z,43.7
2018-05-02T14:37:56.004Z,43.6
2018-05-02T14:38:46.339Z,43.4
2018-05-02T14:39:36.421Z,43.3
2018-05-02T14:40:26.501Z,43.2
2018-05-02T14:41:15.983Z,43.1
2018-05-02T14:42:06.628Z,42.9
2018-05-02T14:42:56.721Z,42.8
2018-05-02T14:43:46.463Z,42.7
2018-05-02T14:44:36.528Z,42.6
2018-05-02T14:45:27.428Z,42.5
2018-05-02T14:46:16.945Z,42.4
2018-05-02T14:47:07.029Z,42.3
2018-05-02T14:47:57.082Z,42.3
2018-05-02T14:48:47.145Z,42.1
2018-05-02T14:49:37.202Z,42.1
2018-05-02T14:50:27.273Z,41.9
2018-05-02T14:51:17.350Z,41.9
2018-05-02T14:52:06.556Z,41.8
2018-05-02T14:52:57.271Z,41.7
2018-05-02T14:53:47.293Z,41.6
2018-05-02T14:54:36.914Z,41.5
2018-05-02T14:55:27.634Z,41.4
2018-05-02T14:56:17.714Z,41.3
2018-05-02T14:57:07.521Z,41.1
2018-05-02T14:57:57.905Z,41.1
2018-05-02T14:58:47.902Z,40.9
2018-05-02T14:59:37.988Z,40.9
2018-05-02T15:00:28.089Z,40.8
2018-05-02T15:01:17.999Z,40.7
2018-05-02T15:02:09.162Z,40.6
2018-05-02T15:02:58.049Z,40.5
2018-05-02T15:03:48.327Z,40.4
2018-05-02T15:04:38.086Z,40.3
2018-05-02T15:05:28.172Z,40.3
2018-05-02T15:06:17.933Z,40.2
2018-05-02T15:07:08.571Z,40.1
2018-05-02T15:07:58.073Z,40
2018-05-02T15:08:48.712Z,39.9
2018-05-02T15:09:38.779Z,39.8
2018-05-02T15:10:28.814Z,39.7
2018-05-02T15:11:18.630Z,39.6
2018-05-02T15:12:08.696Z,39.5
2018-05-02T15:12:59.021Z,39.4
2018-05-02T15:13:48.510Z,39.3
2018-05-02T15:14:39.168Z,39.3
2018-05-02T15:15:29.013Z,39.1
2018-05-02T15:16:18.462Z,39.1
2018-05-02T15:17:09.365Z,39.1
2018-05-02T15:17:59.921Z,38.9
2018-05-02T15:18:49.484Z,38.8
2018-05-02T15:19:39.546Z,38.8
2018-05-02T15:20:29.363Z,38.7
2018-05-02T15:21:19.121Z,38.6
2018-05-02T15:22:09.767Z,38.5
2018-05-02T15:22:59.810Z,38.4
2018-05-02T15:23:49.358Z,38.3
2018-05-02T15:24:39.644Z,38.3
2018-05-02T15:25:29.442Z,38.3
2018-05-02T15:26:20.095Z,38.2
2018-05-02T15:27:10.137Z,38.1
2018-05-02T15:27:59.922Z,38
2018-05-02T15:28:50.248Z,37.9
2018-05-02T15:29:40.049Z,37.9
2018-05-02T15:30:30.112Z,37.8
2018-05-02T15:31:20.459Z,37.8
2018-05-02T15:32:10.526Z,37.7
2018-05-02T15:33:00.328Z,37.7
2018-05-02T15:33:50.652Z,37.6
2018-05-02T15:34:40.459Z,37.6
2018-05-02T15:35:30.514Z,37.5
2018-05-02T15:36:20.272Z,37.4
2018-05-02T15:37:10.914Z,37.4
2018-05-02T15:38:00.985Z,37.4
2018-05-02T15:38:51.038Z,37.3
2018-05-02T15:39:40.836Z,37.3
2018-05-02T15:40:30.902Z,37.3
2018-05-02T15:41:21.246Z,37.2
2018-05-02T15:42:11.291Z,37.1
2018-05-02T15:43:01.088Z,37.1
2018-05-02T15:43:51.448Z,37
2018-05-02T15:44:41.211Z,37
2018-05-02T15:45:31.286Z,36.9
2018-05-02T15:46:21.662Z,36.9
2018-05-02T15:47:11.433Z,36.8
2018-05-02T15:48:01.881Z,36.8
2018-05-02T15:48:51.552Z,36.8
2018-05-02T15:49:41.884Z,36.6
2018-05-02T15:50:31.958Z,36.6
2018-05-02T15:51:22.100Z,36.6
2018-05-02T15:52:11.541Z,36.5
2018-05-02T15:53:02.135Z,36.4
2018-05-02T15:53:52.221Z,36.4
2018-05-02T15:54:42.302Z,36.3
2018-05-02T15:55:32.371Z,36.3
2018-05-02T15:56:21.860Z,36.2
2018-05-02T15:57:12.464Z,36.1
2018-05-02T15:58:02.901Z,36.1
2018-05-02T15:58:52.669Z,36
2018-05-02T15:59:42.685Z,35.9
2018-05-02T16:00:32.731Z,35.9
2018-05-02T16:01:22.816Z,35.8
2018-05-02T16:02:12.590Z,35.8
2018-05-02T16:03:02.963Z,35.7
2018-05-02T16:03:53.012Z,35.6
2018-05-02T16:04:42.794Z,35.6
2018-05-02T16:05:32.880Z,35.6
2018-05-02T16:06:23.208Z,35.5
2018-05-02T16:07:13.369Z,35.4
2018-05-02T16:08:03.344Z,35.4
2018-05-02T16:08:53.447Z,35.4
2018-05-02T16:09:43.509Z,35.3
2018-05-02T16:10:33.333Z,35.3
2018-05-02T16:11:23.621Z,35.3
2018-05-02T16:12:13.397Z,35.3
2018-05-02T16:13:03.489Z,35.2
2018-05-02T16:13:53.522Z,35.1
2018-05-02T16:14:43.977Z,35.1
2018-05-02T16:15:33.351Z,35.1
2018-05-02T16:16:24.526Z,35
2018-05-02T16:17:14.067Z,35
2018-05-02T16:18:03.867Z,34.9
2018-05-02T16:18:53.645Z,34.9
2018-05-02T16:19:44.264Z,34.9
2018-05-02T16:20:34.059Z,34.8
2018-05-02T16:21:24.390Z,34.8
2018-05-02T16:22:15.014Z,34.8
2018-05-02T16:23:04.505Z,34.7
2018-05-02T16:23:54.306Z,34.7
2018-05-02T16:24:44.657Z,34.6
2018-05-02T16:25:34.461Z,34.6
2018-05-02T16:26:24.534Z,34.6
2018-05-02T16:27:14.574Z,34.5
2018-05-02T16:28:04.899Z,34.5
2018-05-02T16:28:54.496Z,34.4
2018-05-02T16:29:44.753Z,34.4
2018-05-02T16:30:35.097Z,34.4
2018-05-02T16:31:25.168Z,34.4
2018-05-02T16:32:14.958Z,34.3
2018-05-02T16:33:05.102Z,34.3
2018-05-02T16:33:55.365Z,34.3
2018-05-02T16:34:45.166Z,34.2
2018-05-02T16:35:35.228Z,34.2
2018-05-02T16:36:25.616Z,34.1
2018-05-02T16:37:15.360Z,34.1
2018-05-02T16:38:05.146Z,34.1
2018-05-02T16:38:55.760Z,34
2018-05-02T16:39:44.988Z,34
2018-05-02T16:40:35.922Z,33.9
2018-05-02T16:41:25.695Z,33.9
2018-05-02T16:42:15.726Z,33.9
2018-05-02T16:43:05.810Z,33.9
2018-05-02T16:43:55.883Z,33.9
2018-05-02T16:44:46.233Z,33.8
2018-05-02T16:45:35.730Z,33.8
2018-05-02T16:46:26.355Z,33.8
2018-05-02T16:47:15.852Z,33.7
2018-05-02T16:48:06.475Z,33.7
2018-05-02T16:48:56.263Z,33.7
2018-05-02T16:49:46.057Z,33.6
2018-05-02T16:50:36.693Z,33.6
2018-05-02T16:51:26.477Z,33.6
2018-05-02T16:52:16.817Z,33.6
2018-05-02T16:53:06.312Z,33.5
2018-05-02T16:53:56.919Z,33.5
2018-05-02T16:54:46.448Z,33.4
2018-05-02T16:55:36.498Z,33.4
2018-05-02T16:56:27.063Z,33.4
2018-05-02T16:57:16.925Z,33.4
2018-05-02T16:58:07.302Z,33.4
2018-05-02T16:58:57.305Z,33.3
2018-05-02T16:59:47.397Z,33.3
2018-05-02T17:00:37.451Z,33.2
2018-05-02T17:01:27.252Z,33.1
2018-05-02T17:02:17.308Z,33.1
2018-05-02T17:03:07.378Z,33.1
2018-05-02T17:03:57.700Z,33
2018-05-02T17:04:48.113Z,33
2018-05-02T17:05:37.569Z,32.9
2018-05-02T17:06:27.916Z,32.9
2018-05-02T17:07:17.417Z,32.8
2018-05-02T17:08:08.019Z,32.8
2018-05-02T17:08:57.642Z,32.7
2018-05-02T17:09:48.160Z,32.7
2018-05-02T17:10:38.224Z,32.6
2018-05-02T17:11:28.030Z,32.6
2018-05-02T17:12:18.354Z,32.5
2018-05-02T17:13:08.164Z,32.4
2018-05-02T17:13:58.231Z,32.4
2018-05-02T17:14:48.288Z,32.4
2018-05-02T17:15:38.363Z,32.3
2018-05-02T17:16:27.855Z,32.3
2018-05-02T17:17:18.774Z,32.2
2018-05-02T17:18:08.903Z,32.1
2018-05-02T17:18:58.953Z,32.1
2018-05-02T17:19:48.665Z,32
2018-05-02T17:20:38.722Z,32
2018-05-02T17:21:29.087Z,31.9
2018-05-02T17:22:20.108Z,31.9
2018-05-02T17:23:09.205Z,31.8
2018-05-02T17:23:58.498Z,31.8
2018-05-02T17:24:49.080Z,31.7
2018-05-02T17:25:39.110Z,31.7
2018-05-02T17:26:29.470Z,31.6
2018-05-02T17:27:19.517Z,31.6
2018-05-02T17:28:09.298Z,31.5
2018-05-02T17:28:59.105Z,31.4
2018-05-02T17:29:49.490Z,31.4
2018-05-02T17:30:39.297Z,31.3
2018-05-02T17:31:29.347Z,31.3
2018-05-02T17:32:19.137Z,31.2
2018-05-02T17:33:09.704Z,31.2
2018-05-02T17:33:59.770Z,31.1
2018-05-02T17:34:50.108Z,31.1
2018-05-02T17:35:39.627Z,31
2018-05-02T17:36:30.234Z,30.9
2018-05-02T17:37:20.361Z,30.9
2018-05-02T17:38:10.366Z,30.9
2018-05-02T17:39:00.415Z,30.8
2018-05-02T17:39:50.232Z,30.8
2018-05-02T17:40:40.613Z,30.7
2018-05-02T17:41:30.334Z,30.6
2018-05-02T17:42:20.702Z,30.6
2018-05-02T17:43:10.826Z,30.6
2018-05-02T17:44:00.259Z,30.5
2018-05-02T17:44:50.599Z,30.4
2018-05-02T17:45:40.952Z,30.4
2018-05-02T17:46:30.724Z,30.4
2018-05-02T17:47:20.507Z,30.3
2018-05-02T17:48:10.293Z,30.3
2018-05-02T17:49:00.940Z,30.3
2018-05-02T17:49:50.440Z,30.2
2018-05-02T17:50:41.040Z,30.1
2018-05-02T17:51:30.842Z,30.1
2018-05-02T17:52:21.473Z,30.1
2018-05-02T17:53:10.960Z,30
2018-05-02T17:54:01.319Z,29.9
2018-05-02T17:54:51.644Z,29.9
2018-05-02T17:55:40.931Z,29.9
2018-05-02T17:56:31.483Z,29.8
2018-05-02T17:57:21.842Z,29.8
2018-05-02T17:58:11.900Z,29.8
2018-05-02T17:59:01.690Z,29.7
2018-05-02T17:59:52.027Z,29.7
2018-05-02T18:00:42.090Z,29.6
2018-05-02T18:01:32.182Z,29.6
2018-05-02T18:02:21.935Z,29.6
2018-05-02T18:03:11.997Z,29.5
2018-05-02T18:04:02.359Z,29.5
2018-05-02T18:04:52.440Z,29.4
2018-05-02T18:05:42.557Z,29.4
2018-05-02T18:06:32.560Z,29.4
2018-05-02T18:07:22.059Z,29.3
2018-05-02T18:08:12.408Z,29.3
2018-05-02T18:09:02.733Z,29.3
2018-05-02T18:09:52.496Z,29.3
2018-05-02T18:10:42.911Z,29.3
2018-05-02T18:11:32.931Z,29.2
2018-05-02T18:12:22.426Z,29.1
2018-05-02T18:13:13.075Z,29.1
2018-05-02T18:14:02.660Z,29.1
2018-05-02T18:14:52.689Z,29.1
2018-05-02T18:15:42.691Z,29
2018-05-02T18:16:33.324Z,29
2018-05-02T18:17:23.383Z,28.9
2018-05-02T18:18:13.448Z,28.9
2018-05-02T18:19:03.511Z,28.9
2018-05-02T18:19:53.632Z,28.9
2018-05-02T18:20:43.371Z,28.8
2018-05-02T18:21:33.736Z,28.8
2018-05-02T18:22:23.507Z,28.8
2018-05-02T18:23:13.552Z,28.8
2018-05-02T18:24:03.882Z,28.8
2018-05-02T18:24:53.477Z,28.7
2018-05-02T18:25:43.254Z,28.7
2018-05-02T18:26:33.253Z,28.7
2018-05-02T18:27:23.886Z,28.6
2018-05-02T18:28:14.396Z,28.6
2018-05-02T18:29:04.063Z,28.6
2018-05-02T18:29:54.399Z,28.6
2018-05-02T18:30:44.138Z,28.5
2018-05-02T18:31:34.488Z,28.5
2018-05-02T18:32:24.632Z,28.5
2018-05-02T18:33:14.601Z,28.5
2018-05-02T18:34:04.674Z,28.4
2018-05-02T18:34:54.451Z,28.4
2018-05-02T18:35:44.243Z,28.4
2018-05-02T18:36:35.607Z,28.4
2018-05-02T18:37:24.927Z,28.4
2018-05-02T18:38:14.713Z,28.3
2018-05-02T18:39:04.780Z,28.3
2018-05-02T18:39:54.814Z,28.3
2018-05-02T18:40:44.905Z,28.2
2018-05-02T18:41:35.253Z,28.1
2018-05-02T18:42:25.039Z,28.1
2018-05-02T18:43:15.105Z,28
2018-05-02T18:44:04.875Z,28
2018-05-02T18:44:55.219Z,28
2018-05-02T18:45:45.590Z,28
2018-05-02T18:46:35.463Z,28
2018-05-02T18:47:25.119Z,27.9
2018-05-02T18:48:15.757Z,27.9
2018-05-02T18:49:05.553Z,27.9
2018-05-02T18:49:55.321Z,27.9
2018-05-02T18:51:35.754Z,27.8
2018-05-02T18:52:25.820Z,27.8
2018-05-02T18:53:15.909Z,27.8
2018-05-02T18:54:05.951Z,27.7
2018-05-02T18:54:55.734Z,27.7
2018-05-02T18:55:46.057Z,27.7
2018-05-02T18:56:36.417Z,27.6
2018-05-02T18:57:25.932Z,27.6
2018-05-02T18:58:16.542Z,27.6
2018-05-02T18:59:06.339Z,27.6
2018-05-02T18:59:56.672Z,27.6
2018-05-02T19:00:46.752Z,27.5
2018-05-02T19:01:36.791Z,27.5
2018-05-02T19:02:26.664Z,27.4
2018-05-02T19:03:16.703Z,27.4
2018-05-02T19:04:07.009Z,27.4
2018-05-02T19:04:56.513Z,27.4
2018-05-02T19:05:46.856Z,27.4
2018-05-02T19:06:36.977Z,27.3
2018-05-02T19:07:26.992Z,27.3
2018-05-02T19:08:16.739Z,27.3
2018-05-02T19:09:06.837Z,27.3
2018-05-02T19:09:57.163Z,27.3
2018-05-02T19:10:47.510Z,27.2
2018-05-02T19:11:37.271Z,27.2
2018-05-02T19:12:27.623Z,27.2
2018-05-02T19:13:17.716Z,27.2
2018-05-02T19:14:07.205Z,27.1
2018-05-02T19:14:57.828Z,27.1
2018-05-02T19:15:47.331Z,27.1
2018-05-02T19:16:37.677Z,27.1
2018-05-02T19:17:28.034Z,27.1
2018-05-02T19:18:17.791Z,27
2018-05-02T19:19:08.133Z,27
2018-05-02T19:19:57.916Z,27
2018-05-02T19:20:48.305Z,27
2018-05-02T19:21:37.796Z,26.9
2018-05-02T19:22:28.394Z,26.9
2018-05-02T19:23:18.460Z,26.9
2018-05-02T19:24:08.348Z,26.9
2018-05-02T19:24:58.582Z,26.9
2018-05-02T19:25:48.666Z,26.9
2018-05-02T19:26:38.758Z,26.9
2018-05-02T19:27:28.530Z,26.9
2018-05-02T19:28:18.871Z,26.8
2018-05-02T19:29:08.361Z,26.8
2018-05-02T19:29:59.079Z,26.8
2018-05-02T19:30:48.771Z,26.8
2018-05-02T19:31:38.824Z,26.8
2018-05-02T19:32:28.697Z,26.8
2018-05-02T19:33:18.746Z,26.8
2018-05-02T19:34:08.820Z,26.7
2018-05-02T19:34:59.077Z,26.7
2018-05-02T19:35:49.182Z,26.6
2018-05-02T19:36:39.615Z,26.6
2018-05-02T19:37:29.288Z,26.6
2018-05-02T19:38:19.377Z,26.6
2018-05-02T19:39:08.844Z,26.6
2018-05-02T19:39:59.792Z,26.5
2018-05-02T19:40:49.574Z,26.5
2018-05-02T19:41:39.617Z,26.5
2018-05-02T19:42:29.676Z,26.5
2018-05-02T19:43:19.721Z,26.4
2018-05-02T19:44:10.124Z,26.4
2018-05-02T19:44:59.584Z,26.4
2018-05-02T19:45:50.201Z,26.4
2018-05-02T19:46:39.996Z,26.4
2018-05-02T19:47:29.507Z,26.4
2018-05-02T19:48:20.407Z,26.4
2018-05-02T19:49:10.478Z,26.4
2018-05-02T19:50:00.280Z,26.3
2018-05-02T19:50:50.051Z,26.3
2018-05-02T19:51:40.640Z,26.3
2018-05-02T19:52:30.171Z,26.3
2018-05-02T19:53:20.253Z,26.3
2018-05-02T19:54:10.588Z,26.3
2018-05-02T19:55:00.649Z,26.3
2018-05-02T19:55:51.090Z,26.2
2018-05-02T19:56:40.486Z,26.2
2018-05-02T19:57:31.121Z,26.2
2018-05-02T19:58:21.156Z,26.2
2018-05-02T19:59:10.938Z,26.2
2018-05-02T20:00:00.756Z,26.1
2018-05-02T20:00:51.395Z,26.1
2018-05-02T20:01:41.414Z,26.1
2018-05-02T20:02:30.919Z,26
2018-05-02T20:03:21.267Z,25.9
2018-05-02T20:04:11.623Z,25.9
2018-05-02T20:05:01.423Z,25.8
2018-05-02T20:05:51.748Z,25.8
2018-05-02T20:06:41.251Z,25.7
2018-05-02T20:07:31.874Z,25.6
2018-05-02T20:08:21.939Z,25.6
2018-05-02T20:09:11.749Z,25.6
2018-05-02T20:10:02.101Z,25.5
2018-05-02T20:10:52.250Z,25.5
2018-05-02T20:11:42.248Z,25.5
2018-05-02T20:12:32.010Z,25.4
2018-05-02T20:13:22.358Z,25.4
2018-05-02T20:14:11.917Z,25.4
2018-05-02T20:15:01.977Z,25.3
2018-05-02T20:15:52.546Z,25.3
2018-05-02T20:16:42.325Z,25.3
2018-05-02T20:17:32.680Z,25.3
2018-05-02T20:18:22.735Z,25.3
2018-05-02T20:19:13.083Z,25.2
2018-05-02T20:20:02.601Z,25.2
2018-05-02T20:20:52.933Z,25.1
2018-05-02T20:21:42.696Z,25.1
2018-05-02T20:22:33.030Z,25.1
2018-05-02T20:23:22.848Z,25.1
2018-05-02T20:24:13.187Z,25.1
2018-05-02T20:25:02.674Z,25
2018-05-02T20:25:52.446Z,25
2018-05-02T20:26:43.387Z,25
2018-05-02T20:27:33.186Z,25
2018-05-02T20:28:23.219Z,25
2018-05-02T20:29:13.589Z,24.9
2018-05-02T20:30:03.095Z,24.9
2018-05-02T20:30:53.803Z,24.9
2018-05-02T20:31:43.226Z,24.9
2018-05-02T20:32:33.529Z,24.9
2018-05-02T20:33:23.591Z,24.9
2018-05-02T20:34:13.386Z,24.8
2018-05-02T20:35:03.737Z,24.8
2018-05-02T20:35:53.242Z,24.9
2018-05-02T20:36:43.583Z,24.8
2018-05-02T20:37:34.217Z,24.8
2018-05-02T20:38:23.719Z,24.8
2018-05-02T20:39:14.402Z,24.8
2018-05-02T20:40:04.472Z,24.8
2018-05-02T20:40:54.155Z,24.7
2018-05-02T20:41:44.501Z,24.7
2018-05-02T20:42:34.657Z,24.7
2018-05-02T20:43:24.382Z,24.7
2018-05-02T20:44:14.492Z,24.7
2018-05-02T20:45:04.801Z,24.7
2018-05-02T20:45:54.583Z,24.7
2018-05-02T20:46:43.845Z,24.6
2018-05-02T20:47:34.681Z,24.6
2018-05-02T20:48:24.530Z,24.6
2018-05-02T20:49:14.394Z,24.6
2018-05-02T20:50:04.705Z,24.6
2018-05-02T20:50:54.466Z,24.6
2018-05-02T20:51:44.788Z,24.6
2018-05-02T20:52:35.059Z,24.6
2018-05-02T20:53:23.987Z,24.6
2018-05-02T20:54:15.585Z,24.6
2018-05-02T20:55:05.745Z,24.6
2018-05-02T20:55:55.439Z,24.5
2018-05-02T20:56:45.089Z,24.5
2018-05-02T20:57:35.835Z,24.5
2018-05-02T20:58:25.238Z,24.5
2018-05-02T20:59:15.594Z,24.5
2018-05-02T21:00:05.369Z,24.4
2018-05-02T21:00:56.006Z,24.4